Henry, Tennessee
Current Conditions -  °F | °C
As of 4:15 PM on Tuesday 25 Nov 2014 (Local Time) from KPHT Reporting Station
Clear Clear  
Wind Chill: 36°   Ceiling: Unl
Heat Index: 39°   Visibility: 10mi
Dew Point: 27°   Wind: 5mph
Humidity: 61%   Direction: 300°WNW
Pressure: 30.14"   Gusts: NA
Location:  36.2°N, 88.42°W
Report Text: KPHT 252215Z AUTO 30004KT 10SM CLR 04/M03 A3014 RMK
Loading
Personal Weather Stations






























Interactive Weather Map New forecast layout! Learn more

10-Day Weather Forecast

Advertisements
Track Severe Weather on mobile